sensor_id;sensor_type;location;lat;lon;timestamp;pressure;altitude;pressure_sealevel;temperature;humidity
76132;BME280;64877;50.994;13.650;2023-05-10T00:01:51;99112.69;;;12.85;51.52
76132;BME280;64877;50.994;13.650;2023-05-10T00:04:17;99108.13;;;12.86;51.62
76132;BME280;64877;50.994;13.650;2023-05-10T00:06:42;99115.53;;;12.84;51.41
76132;BME280;64877;50.994;13.650;2023-05-10T00:09:07;99115.81;;;12.81;51.73
76132;BME280;64877;50.994;13.650;2023-05-10T00:11:33;99103.59;;;12.67;51.89
76132;BME280;64877;50.994;13.650;2023-05-10T00:13:58;99115.69;;;12.73;52.20
76132;BME280;64877;50.994;13.650;2023-05-10T00:16:24;99111.31;;;12.62;51.91
76132;BME280;64877;50.994;13.650;2023-05-10T00:18:49;99101.03;;;12.65;52.06
76132;BME280;64877;50.994;13.650;2023-05-10T00:21:14;99100.03;;;12.66;51.57
76132;BME280;64877;50.994;13.650;2023-05-10T00:23:40;99097.47;;;12.65;51.96
76132;BME280;64877;50.994;13.650;2023-05-10T00:26:05;99099.63;;;12.61;52.19
76132;BME280;64877;50.994;13.650;2023-05-10T00:28:31;99093.59;;;12.67;52.41
76132;BME280;64877;50.994;13.650;2023-05-10T00:30:56;99095.63;;;12.65;51.88
76132;BME280;64877;50.994;13.650;2023-05-10T00:33:21;99097.63;;;12.63;52.07
76132;BME280;64877;50.994;13.650;2023-05-10T00:35:47;99087.34;;;12.57;52.09
76132;BME280;64877;50.994;13.650;2023-05-10T00:38:12;99076.69;;;12.56;52.37
76132;BME280;64877;50.994;13.650;2023-05-10T00:40:38;99086.94;;;12.52;52.65
76132;BME280;64877;50.994;13.650;2023-05-10T00:43:03;99077.41;;;12.48;52.51
76132;BME280;64877;50.994;13.650;2023-05-10T00:45:31;99070.84;;;12.51;52.35
76132;BME280;64877;50.994;13.650;2023-05-10T00:47:59;99074.00;;;12.46;52.69
76132;BME280;64877;50.994;13.650;2023-05-10T00:50:26;99080.69;;;12.42;52.41
76132;BME280;64877;50.994;13.650;2023-05-10T00:52:52;99076.56;;;12.38;53.24
76132;BME280;64877;50.994;13.650;2023-05-10T00:55:18;99083.41;;;12.42;52.67
76132;BME280;64877;50.994;13.650;2023-05-10T00:57:44;99081.44;;;12.34;53.00
76132;BME280;64877;50.994;13.650;2023-05-10T01:00:10;99078.84;;;12.33;53.47
76132;BME280;64877;50.994;13.650;2023-05-10T01:02:36;99073.31;;;12.25;52.94
76132;BME280;64877;50.994;13.650;2023-05-10T01:05:02;99072.31;;;12.26;53.57
76132;BME280;64877;50.994;13.650;2023-05-10T01:07:28;99065.03;;;12.26;53.51
76132;BME280;64877;50.994;13.650;2023-05-10T01:09:54;99065.47;;;12.22;53.58
76132;BME280;64877;50.994;13.650;2023-05-10T01:12:19;99071.19;;;12.19;53.09
76132;BME280;64877;50.994;13.650;2023-05-10T01:14:45;99068.63;;;12.07;53.27
76132;BME280;64877;50.994;13.650;2023-05-10T01:17:12;99066.06;;;12.06;54.13
76132;BME280;64877;50.994;13.650;2023-05-10T01:19:37;99068.91;;;12.04;53.68
76132;BME280;64877;50.994;13.650;2023-05-10T01:25:22;99062.22;;;12.08;53.27
76132;BME280;64877;50.994;13.650;2023-05-10T01:36:23;99054.66;;;11.93;54.43
76132;BME280;64877;50.994;13.650;2023-05-10T01:39:20;99064.34;;;11.95;53.28
76132;BME280;64877;50.994;13.650;2023-05-10T01:41:52;99054.38;;;11.86;54.16
76132;BME280;64877;50.994;13.650;2023-05-10T01:47:10;99052.38;;;11.88;53.98
76132;BME280;64877;50.994;13.650;2023-05-10T01:49:43;99060.66;;;11.86;54.48
76132;BME280;64877;50.994;13.650;2023-05-10T01:52:12;99056.09;;;11.87;54.30
76132;BME280;64877;50.994;13.650;2023-05-10T01:54:43;99056.25;;;11.85;54.00
76132;BME280;64877;50.994;13.650;2023-05-10T01:57:10;99048.97;;;11.86;54.17
76132;BME280;64877;50.994;13.650;2023-05-10T01:59:40;99052.53;;;11.86;53.73
76132;BME280;64877;50.994;13.650;2023-05-10T02:02:10;99053.81;;;11.82;54.87
76132;BME280;64877;50.994;13.650;2023-05-10T02:04:38;99051.22;;;11.71;54.03
76132;BME280;64877;50.994;13.650;2023-05-10T02:07:05;99048.66;;;11.70;54.74
76132;BME280;64877;50.994;13.650;2023-05-10T02:09:33;99048.94;;;11.67;54.92
76132;BME280;64877;50.994;13.650;2023-05-10T02:12:00;99049.19;;;11.63;55.07
76132;BME280;64877;50.994;13.650;2023-05-10T02:14:29;99057.75;;;11.59;54.81
76132;BME280;64877;50.994;13.650;2023-05-10T02:16:56;99047.47;;;11.43;55.83
76132;BME280;64877;50.994;13.650;2023-05-10T02:19:23;99054.31;;;11.47;55.44
76132;BME280;64877;50.994;13.650;2023-05-10T02:21:50;99057.75;;;11.49;55.19
76132;BME280;64877;50.994;13.650;2023-05-10T02:24:17;99049.63;;;11.49;55.34
76132;BME280;64877;50.994;13.650;2023-05-10T02:26:44;99047.47;;;11.43;56.29
76132;BME280;64877;50.994;13.650;2023-05-10T02:29:11;99050.06;;;11.45;55.19
76132;BME280;64877;50.994;13.650;2023-05-10T02:31:38;99041.22;;;11.43;56.60
76132;BME280;64877;50.994;13.650;2023-05-10T02:34:06;99041.09;;;11.44;56.90
76132;BME280;64877;50.994;13.650;2023-05-10T02:36:32;99039.78;;;11.48;56.45
76132;BME280;64877;50.994;13.650;2023-05-10T02:38:59;99046.50;;;11.44;56.46
76132;BME280;64877;50.994;13.650;2023-05-10T02:41:28;99038.81;;;11.39;56.97
76132;BME280;64877;50.994;13.650;2023-05-10T02:43:57;99043.91;;;11.43;57.25
76132;BME280;64877;50.994;13.650;2023-05-10T02:46:25;99041.09;;;11.44;56.81
76132;BME280;64877;50.994;13.650;2023-05-10T02:48:50;99041.34;;;11.41;56.22
76132;BME280;64877;50.994;13.650;2023-05-10T02:51:18;99049.59;;;11.30;57.04
76132;BME280;64877;50.994;13.650;2023-05-10T02:53:45;99047.16;;;11.27;57.09
76132;BME280;64877;50.994;13.650;2023-05-10T02:56:15;99040.91;;;11.26;56.81
76132;BME280;64877;50.994;13.650;2023-05-10T02:58:45;99042.00;;;11.24;56.96
76132;BME280;64877;50.994;13.650;2023-05-10T03:01:11;99051.97;;;11.23;57.04
76132;BME280;64877;50.994;13.650;2023-05-10T03:03:36;99043.56;;;11.17;57.60
76132;BME280;64877;50.994;13.650;2023-05-10T03:06:02;99051.41;;;11.20;57.33
76132;BME280;64877;50.994;13.650;2023-05-10T03:08:27;99046.88;;;11.20;57.58
76132;BME280;64877;50.994;13.650;2023-05-10T03:11:06;99058.69;;;11.19;57.42
76132;BME280;64877;50.994;13.650;2023-05-10T03:14:07;99046.09;;;11.08;57.31
76132;BME280;64877;50.994;13.650;2023-05-10T03:17:40;99040.97;;;10.96;58.88
76132;BME280;64877;50.994;13.650;2023-05-10T03:19:44;99040.00;;;11.06;57.72
76132;BME280;64877;50.994;13.650;2023-05-10T03:22:12;99035.28;;;11.08;58.15
76132;BME280;64877;50.994;13.650;2023-05-10T03:24:45;99041.00;;;11.05;58.42
76132;BME280;64877;50.994;13.650;2023-05-10T03:27:13;99036.59;;;11.04;57.73
76132;BME280;64877;50.994;13.650;2023-05-10T03:29:39;99036.81;;;10.92;58.77
76132;BME280;64877;50.994;13.650;2023-05-10T03:32:05;99032.72;;;10.97;58.71
76132;BME280;64877;50.994;13.650;2023-05-10T03:34:31;99032.56;;;10.89;58.47
76132;BME280;64877;50.994;13.650;2023-05-10T03:36:56;99030.75;;;10.99;58.21
76132;BME280;64877;50.994;13.650;2023-05-10T03:39:22;99032.03;;;11.05;58.40
76132;BME280;64877;50.994;13.650;2023-05-10T03:41:47;99037.44;;;11.05;57.92
76132;BME280;64877;50.994;13.650;2023-05-10T03:44:13;99050.66;;;11.08;58.50
76132;BME280;64877;50.994;13.650;2023-05-10T03:46:38;99049.84;;;11.17;57.63
76132;BME280;64877;50.994;13.650;2023-05-10T03:49:03;99059.91;;;11.05;57.91
76132;BME280;64877;50.994;13.650;2023-05-10T03:51:29;99047.09;;;11.07;57.70
76132;BME280;64877;50.994;13.650;2023-05-10T03:53:56;99042.00;;;11.04;58.72
76132;BME280;64877;50.994;13.650;2023-05-10T03:56:21;99045.41;;;11.06;58.06
76132;BME280;64877;50.994;13.650;2023-05-10T03:58:47;99044.84;;;11.12;58.33
76132;BME280;64877;50.994;13.650;2023-05-10T04:01:12;99056.09;;;11.18;58.01
76132;BME280;64877;50.994;13.650;2023-05-10T04:03:37;99052.28;;;11.20;57.75
76132;BME280;64877;50.994;13.650;2023-05-10T04:06:03;99046.00;;;11.20;57.98
76132;BME280;64877;50.994;13.650;2023-05-10T04:08:29;99049.41;;;11.22;57.95
76132;BME280;64877;50.994;13.650;2023-05-10T04:11:07;99053.94;;;11.11;58.83
76132;BME280;64877;50.994;13.650;2023-05-10T04:13:33;99046.84;;;11.10;58.43
76132;BME280;64877;50.994;13.650;2023-05-10T04:16:00;99043.13;;;11.11;59.14
76132;BME280;64877;50.994;13.650;2023-05-10T04:18:25;99043.28;;;11.10;59.10
76132;BME280;64877;50.994;13.650;2023-05-10T04:20:50;99040.00;;;11.06;58.38
76132;BME280;64877;50.994;13.650;2023-05-10T04:23:16;99037.59;;;11.13;58.93
76132;BME280;64877;50.994;13.650;2023-05-10T04:25:42;99042.88;;;11.15;59.30
76132;BME280;64877;50.994;13.650;2023-05-10T04:28:07;99040.56;;;11.10;60.10
76132;BME280;64877;50.994;13.650;2023-05-10T04:30:33;99038.75;;;11.20;59.05
76132;BME280;64877;50.994;13.650;2023-05-10T04:32:58;99041.03;;;11.25;59.38
76132;BME280;64877;50.994;13.650;2023-05-10T04:35:24;99046.00;;;11.20;58.57
76132;BME280;64877;50.994;13.650;2023-05-10T04:37:49;99037.34;;;11.26;58.57
76132;BME280;64877;50.994;13.650;2023-05-10T04:40:14;99031.38;;;11.32;58.39
76132;BME280;64877;50.994;13.650;2023-05-10T04:42:40;99031.38;;;11.32;58.88
76132;BME280;64877;50.994;13.650;2023-05-10T04:45:06;99032.09;;;11.34;58.38
76132;BME280;64877;50.994;13.650;2023-05-10T04:47:32;99027.56;;;11.44;58.13
76132;BME280;64877;50.994;13.650;2023-05-10T04:49:58;99032.09;;;11.53;57.91
76132;BME280;64877;50.994;13.650;2023-05-10T04:52:23;99029.44;;;12.11;56.75
76132;BME280;64877;50.994;13.650;2023-05-10T04:54:49;99020.91;;;12.63;54.39
76132;BME280;64877;50.994;13.650;2023-05-10T04:57:14;99018.38;;;13.16;53.38
76132;BME280;64877;50.994;13.650;2023-05-10T04:59:40;99018.41;;;13.62;51.69
76132;BME280;64877;50.994;13.650;2023-05-10T05:02:05;99020.25;;;13.97;50.71
76132;BME280;64877;50.994;13.650;2023-05-10T05:04:30;99021.16;;;14.23;49.98
76132;BME280;64877;50.994;13.650;2023-05-10T05:06:56;99019.16;;;14.78;49.50
76132;BME280;64877;50.994;13.650;2023-05-10T05:09:22;99019.53;;;14.83;48.33
76132;BME280;64877;50.994;13.650;2023-05-10T05:11:47;99017.13;;;15.14;47.54
76132;BME280;64877;50.994;13.650;2023-05-10T05:14:13;99013.50;;;15.56;46.65
76132;BME280;64877;50.994;13.650;2023-05-10T05:16:39;99012.78;;;15.45;46.60
76132;BME280;64877;50.994;13.650;2023-05-10T05:19:04;99026.31;;;15.63;46.36
76132;BME280;64877;50.994;13.650;2023-05-10T05:21:29;99019.19;;;15.79;45.61
76132;BME280;64877;50.994;13.650;2023-05-10T05:23:55;99020.22;;;15.86;45.20
76132;BME280;64877;50.994;13.650;2023-05-10T05:26:20;99021.91;;;15.95;45.13
76132;BME280;64877;50.994;13.650;2023-05-10T05:28:46;99015.44;;;16.20;44.96
76132;BME280;64877;50.994;13.650;2023-05-10T05:31:13;99006.22;;;16.54;44.22
76132;BME280;64877;50.994;13.650;2023-05-10T05:33:38;99010.66;;;16.71;44.11
76132;BME280;64877;50.994;13.650;2023-05-10T05:36:05;99003.97;;;16.82;43.36
76132;BME280;64877;50.994;13.650;2023-05-10T05:38:31;99003.13;;;16.82;43.65
76132;BME280;64877;50.994;13.650;2023-05-10T05:40:56;99008.44;;;17.14;43.10
76132;BME280;64877;50.994;13.650;2023-05-10T05:43:22;99009.88;;;17.02;43.33
76132;BME280;64877;50.994;13.650;2023-05-10T05:45:47;99006.53;;;17.23;42.80
76132;BME280;64877;50.994;13.650;2023-05-10T05:48:13;99012.00;;;17.54;41.84
76132;BME280;64877;50.994;13.650;2023-05-10T05:50:38;99002.00;;;17.77;41.68
76132;BME280;64877;50.994;13.650;2023-05-10T05:53:04;99016.69;;;17.68;41.69
76132;BME280;64877;50.994;13.650;2023-05-10T05:55:29;99015.53;;;17.94;41.49
76132;BME280;64877;50.994;13.650;2023-05-10T05:57:56;99014.09;;;18.06;41.16
76132;BME280;64877;50.994;13.650;2023-05-10T06:00:22;99022.63;;;17.80;41.12
76132;BME280;64877;50.994;13.650;2023-05-10T06:02:47;99015.19;;;17.66;41.94
76132;BME280;64877;50.994;13.650;2023-05-10T06:05:13;99018.81;;;17.89;41.47
76132;BME280;64877;50.994;13.650;2023-05-10T06:07:39;99023.06;;;17.92;41.20
76132;BME280;64877;50.994;13.650;2023-05-10T06:10:07;99021.94;;;18.24;40.66
76132;BME280;64877;50.994;13.650;2023-05-10T06:12:33;99022.94;;;18.08;40.45
76132;BME280;64877;50.994;13.650;2023-05-10T06:14:58;99021.03;;;18.69;40.37
76132;BME280;64877;50.994;13.650;2023-05-10T06:17:23;99021.75;;;18.63;39.78
76132;BME280;64877;50.994;13.650;2023-05-10T06:19:49;99026.50;;;18.69;40.46
76132;BME280;64877;50.994;13.650;2023-05-10T06:22:15;99023.41;;;19.02;39.14
76132;BME280;64877;50.994;13.650;2023-05-10T06:24:40;99021.88;;;18.84;39.50
76132;BME280;64877;50.994;13.650;2023-05-10T06:27:06;99028.59;;;18.97;39.36
76132;BME280;64877;50.994;13.650;2023-05-10T06:29:31;99033.03;;;18.83;39.71
76132;BME280;64877;50.994;13.650;2023-05-10T06:31:57;99026.84;;;18.66;39.88
76132;BME280;64877;50.994;13.650;2023-05-10T06:34:22;99031.53;;;19.10;39.80
76132;BME280;64877;50.994;13.650;2023-05-10T06:36:48;99021.97;;;19.65;38.66
76132;BME280;64877;50.994;13.650;2023-05-10T06:39:13;99022.06;;;19.42;38.80
76132;BME280;64877;50.994;13.650;2023-05-10T06:41:39;99026.69;;;19.42;38.51
76132;BME280;64877;50.994;13.650;2023-05-10T06:44:04;99022.13;;;19.49;38.16
76132;BME280;64877;50.994;13.650;2023-05-10T06:46:30;99023.03;;;19.34;38.75
76132;BME280;64877;50.994;13.650;2023-05-10T06:48:55;99020.22;;;19.64;37.88
76132;BME280;64877;50.994;13.650;2023-05-10T06:51:20;99022.03;;;19.93;37.67
76132;BME280;64877;50.994;13.650;2023-05-10T06:53:46;99019.53;;;19.77;38.10
76132;BME280;64877;50.994;13.650;2023-05-10T06:56:12;99024.47;;;20.24;37.72
76132;BME280;64877;50.994;13.650;2023-05-10T06:58:37;99022.09;;;20.64;36.65
76132;BME280;64877;50.994;13.650;2023-05-10T07:01:04;99021.50;;;20.69;36.55
76132;BME280;64877;50.994;13.650;2023-05-10T07:03:30;99023.50;;;20.88;35.96
76132;BME280;64877;50.994;13.650;2023-05-10T07:06:03;99014.41;;;20.87;36.14
76132;BME280;64877;50.994;13.650;2023-05-10T07:08:32;99017.13;;;21.57;35.16
76132;BME280;64877;50.994;13.650;2023-05-10T07:11:04;99028.59;;;20.91;35.91
76132;BME280;64877;50.994;13.650;2023-05-10T07:13:31;99027.16;;;20.67;36.26
76132;BME280;64877;50.994;13.650;2023-05-10T07:15:57;99020.13;;;20.86;36.44
76132;BME280;64877;50.994;13.650;2023-05-10T07:18:23;99024.88;;;20.99;36.01
76132;BME280;64877;50.994;13.650;2023-05-10T07:20:48;99024.34;;;21.23;35.60
76132;BME280;64877;50.994;13.650;2023-05-10T07:23:14;99027.13;;;21.30;35.38
76132;BME280;64877;50.994;13.650;2023-05-10T07:25:39;99035.16;;;20.62;36.73
76132;BME280;64877;50.994;13.650;2023-05-10T07:28:05;99024.69;;;21.07;36.05
76132;BME280;64877;50.994;13.650;2023-05-10T07:30:30;99016.50;;;21.55;35.13
76132;BME280;64877;50.994;13.650;2023-05-10T07:32:56;99019.88;;;22.25;33.91
76132;BME280;64877;50.994;13.650;2023-05-10T07:35:21;99017.00;;;23.31;32.04
76132;BME280;64877;50.994;13.650;2023-05-10T07:37:46;99017.34;;;23.54;31.61
76132;BME280;64877;50.994;13.650;2023-05-10T07:40:12;99019.16;;;25.18;29.11
76132;BME280;64877;50.994;13.650;2023-05-10T07:42:37;99011.19;;;30.07;23.02
76132;BME280;64877;50.994;13.650;2023-05-10T07:45:03;99007.34;;;33.32;20.03
76132;BME280;64877;50.994;13.650;2023-05-10T07:47:29;99010.97;;;34.17;18.17
76132;BME280;64877;50.994;13.650;2023-05-10T07:49:54;98996.41;;;35.18;17.90
76132;BME280;64877;50.994;13.650;2023-05-10T07:52:19;98999.34;;;36.41;16.39
76132;BME280;64877;50.994;13.650;2023-05-10T07:54:45;98995.97;;;36.77;15.40
76132;BME280;64877;50.994;13.650;2023-05-10T07:57:11;98997.19;;;37.50;15.49
76132;BME280;64877;50.994;13.650;2023-05-10T07:59:36;98996.69;;;38.62;14.64
76132;BME280;64877;50.994;13.650;2023-05-10T08:02:01;98999.06;;;37.96;14.34
76132;BME280;64877;50.994;13.650;2023-05-10T08:04:27;98987.31;;;37.06;15.11
76132;BME280;64877;50.994;13.650;2023-05-10T08:06:52;98995.84;;;34.13;18.23
76132;BME280;64877;50.994;13.650;2023-05-10T08:09:18;98988.91;;;33.21;18.58
76132;BME280;64877;50.994;13.650;2023-05-10T08:11:48;98999.94;;;35.29;17.38
76132;BME280;64877;50.994;13.650;2023-05-10T08:14:13;98996.84;;;36.02;16.52
76132;BME280;64877;50.994;13.650;2023-05-10T08:16:39;98980.75;;;36.45;16.46
76132;BME280;64877;50.994;13.650;2023-05-10T08:19:04;98983.38;;;36.56;15.89
76132;BME280;64877;50.994;13.650;2023-05-10T08:21:30;98988.78;;;36.14;16.68
76132;BME280;64877;50.994;13.650;2023-05-10T08:23:56;98992.56;;;36.23;16.29
76132;BME280;64877;50.994;13.650;2023-05-10T08:26:21;98991.75;;;34.35;18.50
76132;BME280;64877;50.994;13.650;2023-05-10T08:28:47;98996.50;;;32.69;19.37
76132;BME280;64877;50.994;13.650;2023-05-10T08:31:12;99002.00;;;34.89;17.97
76132;BME280;64877;50.994;13.650;2023-05-10T08:33:37;98999.94;;;33.82;18.38
76132;BME280;64877;50.994;13.650;2023-05-10T08:36:03;99010.47;;;34.05;18.38
76132;BME280;64877;50.994;13.650;2023-05-10T08:38:28;98998.38;;;34.54;18.04
76132;BME280;64877;50.994;13.650;2023-05-10T08:40:54;99007.59;;;33.51;18.61
76132;BME280;64877;50.994;13.650;2023-05-10T08:43:26;99035.75;;;29.05;23.10
76132;BME280;64877;50.994;13.650;2023-05-10T08:45:54;99025.03;;;28.80;24.26
76132;BME280;64877;50.994;13.650;2023-05-10T08:48:20;99042.28;;;27.28;26.62
76132;BME280;64877;50.994;13.650;2023-05-10T08:50:48;99039.63;;;26.02;28.27
76132;BME280;64877;50.994;13.650;2023-05-10T08:53:17;99053.88;;;24.89;29.61
76132;BME280;64877;50.994;13.650;2023-05-10T08:55:44;99050.91;;;23.44;33.01
76132;BME280;64877;50.994;13.650;2023-05-10T08:58:10;99055.34;;;23.45;32.39
76132;BME280;64877;50.994;13.650;2023-05-10T09:00:36;99060.53;;;22.95;32.88
76132;BME280;64877;50.994;13.650;2023-05-10T09:03:03;99066.03;;;22.56;33.49
76132;BME280;64877;50.994;13.650;2023-05-10T09:05:29;99063.16;;;21.96;34.80
76132;BME280;64877;50.994;13.650;2023-05-10T09:07:54;99063.44;;;21.53;36.12
76132;BME280;64877;50.994;13.650;2023-05-10T09:10:20;99062.28;;;20.78;37.21
76132;BME280;64877;50.994;13.650;2023-05-10T09:12:48;99077.06;;;20.13;38.38
76132;BME280;64877;50.994;13.650;2023-05-10T09:15:16;99084.28;;;20.14;39.13
76132;BME280;64877;50.994;13.650;2023-05-10T09:17:44;99083.03;;;19.80;39.67
76132;BME280;64877;50.994;13.650;2023-05-10T09:20:10;99076.41;;;19.90;39.88
76132;BME280;64877;50.994;13.650;2023-05-10T09:22:35;99073.34;;;19.99;39.83
76132;BME280;64877;50.994;13.650;2023-05-10T09:25:19;99081.78;;;19.83;39.77
76132;BME280;64877;50.994;13.650;2023-05-10T09:27:46;99078.13;;;19.76;40.05
76132;BME280;64877;50.994;13.650;2023-05-10T09:30:25;99082.78;;;19.46;41.10
76132;BME280;64877;50.994;13.650;2023-05-10T09:32:52;99075.78;;;19.43;40.71
76132;BME280;64877;50.994;13.650;2023-05-10T09:35:20;99089.69;;;19.42;41.08
76132;BME280;64877;50.994;13.650;2023-05-10T09:37:47;99104.13;;;19.35;41.67
76132;BME280;64877;50.994;13.650;2023-05-10T09:40:16;99080.41;;;19.28;41.59
76132;BME280;64877;50.994;13.650;2023-05-10T09:43:02;99097.53;;;19.30;42.13
76132;BME280;64877;50.994;13.650;2023-05-10T09:45:29;99090.03;;;19.38;41.87
76132;BME280;64877;50.994;13.650;2023-05-10T09:47:55;99091.50;;;19.34;42.00
76132;BME280;64877;50.994;13.650;2023-05-10T09:50:22;99095.72;;;19.52;42.06
76132;BME280;64877;50.994;13.650;2023-05-10T09:52:52;99098.09;;;19.25;42.16
76132;BME280;64877;50.994;13.650;2023-05-10T09:55:23;99096.97;;;19.34;42.75
76132;BME280;64877;50.994;13.650;2023-05-10T09:57:50;99094.69;;;19.38;42.57
76132;BME280;64877;50.994;13.650;2023-05-10T10:00:23;99103.09;;;19.22;43.30
76132;BME280;64877;50.994;13.650;2023-05-10T10:02:59;99090.63;;;19.19;42.99
76132;BME280;64877;50.994;13.650;2023-05-10T10:05:32;99095.16;;;19.12;43.21
76132;BME280;64877;50.994;13.650;2023-05-10T10:07:58;99088.84;;;19.26;42.41
76132;BME280;64877;50.994;13.650;2023-05-10T10:10:25;99094.31;;;19.26;42.71
76132;BME280;64877;50.994;13.650;2023-05-10T10:12:51;99083.38;;;19.26;43.29
76132;BME280;64877;50.994;13.650;2023-05-10T10:15:17;99093.56;;;19.32;42.91
76132;BME280;64877;50.994;13.650;2023-05-10T10:17:43;99085.25;;;19.11;42.91
76132;BME280;64877;50.994;13.650;2023-05-10T10:20:09;99094.09;;;19.13;43.28
76132;BME280;64877;50.994;13.650;2023-05-10T10:22:34;99093.47;;;19.26;43.26
76132;BME280;64877;50.994;13.650;2023-05-10T10:25:01;99088.75;;;19.20;42.89
76132;BME280;64877;50.994;13.650;2023-05-10T10:30:13;99092.41;;;19.12;43.30
76132;BME280;64877;50.994;13.650;2023-05-10T10:35:35;99084.78;;;19.22;42.88
76132;BME280;64877;50.994;13.650;2023-05-10T10:38:01;99093.25;;;19.13;43.35
76132;BME280;64877;50.994;13.650;2023-05-10T10:40:28;99088.91;;;19.18;43.43
76132;BME280;64877;50.994;13.650;2023-05-10T10:42:55;99083.16;;;19.13;43.34
76132;BME280;64877;50.994;13.650;2023-05-10T10:45:21;99097.81;;;19.35;42.88
76132;BME280;64877;50.994;13.650;2023-05-10T10:47:47;99091.94;;;19.23;43.18
76132;BME280;64877;50.994;13.650;2023-05-10T10:50:13;99098.09;;;19.25;43.51
76132;BME280;64877;50.994;13.650;2023-05-10T10:52:43;99092.41;;;19.42;42.83
76132;BME280;64877;50.994;13.650;2023-05-10T10:55:20;99092.41;;;19.42;42.78
76132;BME280;64877;50.994;13.650;2023-05-10T10:57:55;99095.44;;;19.47;43.32
76132;BME280;64877;50.994;13.650;2023-05-10T11:03:09;99091.47;;;19.64;42.76
76132;BME280;64877;50.994;13.650;2023-05-10T11:05:42;99080.94;;;19.82;42.67
76132;BME280;64877;50.994;13.650;2023-05-10T11:08:27;99089.56;;;19.79;42.96
76132;BME280;64877;50.994;13.650;2023-05-10T11:13:44;99085.25;;;19.70;42.96
76132;BME280;64877;50.994;13.650;2023-05-10T11:16:17;99088.94;;;19.62;43.02
76132;BME280;64877;50.994;13.650;2023-05-10T11:19:13;99091.03;;;19.60;43.60
76132;BME280;64877;50.994;13.650;2023-05-10T11:24:36;99101.38;;;19.50;43.11
76132;BME280;64877;50.994;13.650;2023-05-10T11:27:01;99100.53;;;19.50;43.25
76132;BME280;64877;50.994;13.650;2023-05-10T11:29:27;99096.00;;;19.57;42.79
76132;BME280;64877;50.994;13.650;2023-05-10T11:31:57;99108.84;;;19.42;43.16
76132;BME280;64877;50.994;13.650;2023-05-10T11:34:27;99114.31;;;19.42;43.11
76132;BME280;64877;50.994;13.650;2023-05-10T11:36:54;99099.78;;;19.56;43.44
76132;BME280;64877;50.994;13.650;2023-05-10T11:39:20;99100.00;;;19.69;43.62
76132;BME280;64877;50.994;13.650;2023-05-10T11:41:48;99100.13;;;19.82;43.53
76132;BME280;64877;50.994;13.650;2023-05-10T11:44:14;99106.38;;;19.76;43.04
76132;BME280;64877;50.994;13.650;2023-05-10T11:46:39;99104.16;;;19.65;43.03
76132;BME280;64877;50.994;13.650;2023-05-10T11:49:07;99094.94;;;19.58;42.82
76132;BME280;64877;50.994;13.650;2023-05-10T11:51:34;99097.34;;;19.61;43.26
76132;BME280;64877;50.994;13.650;2023-05-10T11:54:01;99088.44;;;19.74;43.40
76132;BME280;64877;50.994;13.650;2023-05-10T11:56:27;99092.41;;;19.71;43.13
76132;BME280;64877;50.994;13.650;2023-05-10T11:58:56;99100.00;;;19.69;42.93
76132;BME280;64877;50.994;13.650;2023-05-10T12:01:23;99105.91;;;19.73;43.19
76132;BME280;64877;50.994;13.650;2023-05-10T12:03:50;99100.16;;;19.68;43.46
76132;BME280;64877;50.994;13.650;2023-05-10T12:06:17;99094.50;;;19.69;43.66
76132;BME280;64877;50.994;13.650;2023-05-10T12:08:47;99109.56;;;19.95;43.74
76132;BME280;64877;50.994;13.650;2023-05-10T12:11:13;99102.53;;;20.07;42.83
76132;BME280;64877;50.994;13.650;2023-05-10T12:13:42;99106.56;;;19.90;42.75
76132;BME280;64877;50.994;13.650;2023-05-10T12:16:19;99099.47;;;19.95;42.65
76132;BME280;64877;50.994;13.650;2023-05-10T12:18:48;99109.75;;;19.93;42.65
76132;BME280;64877;50.994;13.650;2023-05-10T12:21:15;99106.09;;;19.86;42.65
76132;BME280;64877;50.994;13.650;2023-05-10T12:23:40;99105.53;;;19.76;43.69
76132;BME280;64877;50.994;13.650;2023-05-10T12:26:08;99114.50;;;19.84;43.91
76132;BME280;64877;50.994;13.650;2023-05-10T12:28:34;99118.81;;;19.94;43.61
76132;BME280;64877;50.994;13.650;2023-05-10T12:31:01;99112.03;;;19.90;43.15
76132;BME280;64877;50.994;13.650;2023-05-10T12:33:27;99119.31;;;19.82;43.07
76132;BME280;64877;50.994;13.650;2023-05-10T12:36:00;99120.00;;;19.84;42.81
76132;BME280;64877;50.994;13.650;2023-05-10T12:38:30;99123.69;;;19.77;43.10
76132;BME280;64877;50.994;13.650;2023-05-10T12:41:01;99129.59;;;19.95;42.56
76132;BME280;64877;50.994;13.650;2023-05-10T12:43:28;99134.06;;;19.81;42.95
76132;BME280;64877;50.994;13.650;2023-05-10T12:45:54;99136.91;;;19.73;42.92
76132;BME280;64877;50.994;13.650;2023-05-10T12:48:20;99131.13;;;19.83;43.11
76132;BME280;64877;50.994;13.650;2023-05-10T12:50:46;99133.88;;;19.83;42.73
76132;BME280;64877;50.994;13.650;2023-05-10T12:53:13;99132.41;;;19.66;43.09
76132;BME280;64877;50.994;13.650;2023-05-10T12:55:40;99123.72;;;19.98;42.72
76132;BME280;64877;50.994;13.650;2023-05-10T12:58:06;99136.47;;;20.06;43.02
76132;BME280;64877;50.994;13.650;2023-05-10T13:00:31;99131.00;;;20.27;42.45
76132;BME280;64877;50.994;13.650;2023-05-10T13:02:56;99128.94;;;20.29;42.29
76132;BME280;64877;50.994;13.650;2023-05-10T13:05:22;99150.22;;;20.27;41.89
76132;BME280;64877;50.994;13.650;2023-05-10T13:07:47;99138.81;;;20.45;41.65
76132;BME280;64877;50.994;13.650;2023-05-10T13:10:13;99134.00;;;20.69;40.58
76132;BME280;64877;50.994;13.650;2023-05-10T13:12:39;99140.47;;;20.61;40.75
76132;BME280;64877;50.994;13.650;2023-05-10T13:15:04;99134.84;;;20.69;40.06
76132;BME280;64877;50.994;13.650;2023-05-10T13:17:30;99132.88;;;20.84;40.46
76132;BME280;64877;50.994;13.650;2023-05-10T13:19:56;99139.84;;;20.59;37.92